Time;durP1;ratioP1;P1;durP2;ratioP2;P2;SDS_P1;SDS_P2;PMS_P1;PMS_P2;Temp;Humidity;BMP_temperature;BMP_pressure;BME280_temperature;BME280_humidity;BME280_pressure;Samples;Min_cycle;Max_cycle;Signal;HPM_P1;HPM_P2
2024/01/07 00:00:38;;;;;;;10.27;4.30;;;18.80;42.70;;;;;;5128783;27;20103;-55
2024/01/07 00:03:04;;;;;;;16.40;4.07;;;18.70;42.80;;;;;;5128879;27;20147;-56
2024/01/07 00:05:31;;;;;;;19.55;4.10;;;18.70;43.30;;;;;;5127794;27;20072;-54
2024/01/07 00:07:57;;;;;;;24.35;4.50;;;18.70;43.10;;;;;;5127778;27;20487;-49
2024/01/07 00:10:24;;;;;;;13.88;3.75;;;18.70;42.50;;;;;;5129732;27;20468;-53
2024/01/07 00:12:52;;;;;;;20.73;3.50;;;18.60;42.40;;;;;;5128298;27;20100;-48
2024/01/07 00:15:18;;;;;;;12.38;4.18;;;18.50;42.40;;;;;;5129514;27;20072;-55
2024/01/07 00:17:45;;;;;;;17.30;4.05;;;18.40;42.20;;;;;;5129552;27;20076;-52
2024/01/07 00:20:11;;;;;;;17.63;3.78;;;18.40;42.50;;;;;;5127251;27;20211;-54
2024/01/07 00:22:38;;;;;;;14.38;4.35;;;18.30;42.30;;;;;;5128759;27;20537;-55
2024/01/07 00:25:04;;;;;;;17.13;4.80;;;18.30;42.90;;;;;;5130115;27;20085;-53
2024/01/07 00:27:31;;;;;;;44.90;5.30;;;18.30;42.40;;;;;;5127945;27;20152;-63
2024/01/07 00:29:57;;;;;;;80.20;7.38;;;18.30;42.90;;;;;;5126750;27;20072;-61
2024/01/07 00:32:24;;;;;;;59.10;5.40;;;18.30;42.70;;;;;;5126520;27;20155;-67
2024/01/07 00:34:51;;;;;;;36.35;5.07;;;18.30;42.60;;;;;;5128806;27;20082;-59
2024/01/07 00:37:17;;;;;;;41.67;5.50;;;18.30;43.00;;;;;;5125673;27;20163;-57
2024/01/07 00:39:45;;;;;;;22.10;4.68;;;18.20;43.10;;;;;;5125727;27;20094;-57
2024/01/07 00:42:12;;;;;;;24.02;4.53;;;18.10;42.80;;;;;;5127522;27;20107;-56
2024/01/07 00:44:38;;;;;;;16.10;4.05;;;18.00;43.20;;;;;;5109500;27;20072;-54
2024/01/07 00:47:05;;;;;;;30.20;10.82;;;17.90;43.90;;;;;;5126443;27;20088;-54
2024/01/07 00:49:31;;;;;;;31.65;10.40;;;17.80;43.20;;;;;;5128507;27;20166;-52
2024/01/07 00:51:58;;;;;;;26.27;8.00;;;17.70;43.20;;;;;;5128132;27;20661;-53
2024/01/07 00:54:24;;;;;;;26.00;10.73;;;17.70;43.20;;;;;;5127559;27;20154;-52
2024/01/07 00:56:51;;;;;;;29.08;10.38;;;17.60;43.30;;;;;;5109244;27;20079;-53
2024/01/07 00:59:17;;;;;;;23.70;5.68;;;17.60;43.40;;;;;;5128495;27;20078;-52
2024/01/07 01:01:44;;;;;;;21.80;5.72;;;17.60;43.50;;;;;;5126032;27;20477;-53
2024/01/07 01:04:10;;;;;;;28.08;6.47;;;17.50;43.50;;;;;;5128039;27;20535;-57
2024/01/07 01:06:37;;;;;;;27.75;5.78;;;17.40;43.60;;;;;;5123732;27;20128;-53
2024/01/07 01:09:03;;;;;;;26.48;7.00;;;17.40;43.80;;;;;;5128369;27;20068;-54
2024/01/07 01:11:30;;;;;;;28.63;8.55;;;17.20;44.20;;;;;;5128168;27;20498;-50
2024/01/07 01:13:56;;;;;;;29.27;6.35;;;17.20;44.30;;;;;;5109580;27;20080;-51
2024/01/07 01:16:23;;;;;;;24.90;5.85;;;17.10;44.40;;;;;;5124102;27;20080;-56
2024/01/07 01:18:50;;;;;;;25.98;6.00;;;17.00;45.10;;;;;;5126152;27;20072;-54
2024/01/07 01:21:17;;;;;;;29.02;6.32;;;17.00;45.00;;;;;;5125939;27;20457;-52
2024/01/07 01:23:44;;;;;;;31.42;6.45;;;16.90;45.00;;;;;;5127314;27;20530;-56
2024/01/07 01:26:11;;;;;;;29.42;7.15;;;16.90;45.20;;;;;;5125177;27;20079;-53
2024/01/07 01:28:37;;;;;;;29.92;7.63;;;16.90;45.60;;;;;;5127300;27;20120;-54
2024/01/07 01:31:04;;;;;;;26.05;7.97;;;16.80;46.30;;;;;;5128410;27;20103;-55
2024/01/07 01:33:31;;;;;;;43.25;9.43;;;16.70;46.50;;;;;;5124705;27;20072;-51
2024/01/07 01:35:57;;;;;;;47.22;9.10;;;16.60;46.40;;;;;;5125902;27;21310;-51
2024/01/07 01:38:24;;;;;;;41.20;10.55;;;16.50;46.50;;;;;;5124795;27;20078;-53
2024/01/07 01:40:55;;;;;;;41.78;10.48;;;16.50;46.70;;;;;;5127154;27;20074;-57
2024/01/07 01:43:29;;;;;;;45.50;10.80;;;16.40;47.50;;;;;;5125787;27;20885;-54
2024/01/07 01:45:56;;;;;;;55.97;14.10;;;16.30;47.20;;;;;;5125870;27;20108;-60
2024/01/07 01:48:28;;;;;;;53.75;14.50;;;16.20;47.60;;;;;;5126537;27;20094;-57
2024/01/07 01:50:57;;;;;;;58.63;12.05;;;16.10;47.80;;;;;;5123823;27;20150;-54
2024/01/07 01:53:28;;;;;;;49.90;16.63;;;16.00;48.10;;;;;;5124390;27;20086;-52
2024/01/07 01:55:59;;;;;;;53.03;13.00;;;15.90;48.40;;;;;;5126527;27;20125;-56
2024/01/07 01:58:26;;;;;;;49.95;13.23;;;15.90;48.80;;;;;;5091120;27;20167;-55
2024/01/07 02:00:53;;;;;;;44.10;15.50;;;15.80;48.60;;;;;;5125563;27;20198;-54
2024/01/07 02:03:19;;;;;;;62.50;19.70;;;15.80;48.00;;;;;;5124172;27;20127;-55
2024/01/07 02:05:48;;;;;;;75.47;25.88;;;15.70;47.70;;;;;;5124084;27;20072;-51
2024/01/07 02:08:14;;;;;;;61.13;25.63;;;15.70;47.70;;;;;;5124640;27;20091;-51
2024/01/07 02:10:41;;;;;;;69.47;25.38;;;15.60;47.90;;;;;;5124455;27;20080;-55
2024/01/07 02:13:07;;;;;;;57.65;24.40;;;15.60;48.00;;;;;;5126788;27;20101;-51
2024/01/07 02:15:34;;;;;;;71.22;26.55;;;15.50;48.10;;;;;;5125189;27;20064;-53
2024/01/07 02:18:01;;;;;;;74.15;25.02;;;15.50;48.30;;;;;;5127250;27;20075;-51
2024/01/07 02:20:27;;;;;;;90.15;28.42;;;15.40;48.40;;;;;;5125501;27;20083;-53
2024/01/07 02:22:54;;;;;;;81.20;26.35;;;15.40;48.80;;;;;;5126776;27;20075;-54
2024/01/07 02:25:20;;;;;;;90.05;27.33;;;15.30;49.10;;;;;;5124708;27;21261;-56
2024/01/07 02:27:47;;;;;;;84.32;25.35;;;15.30;49.30;;;;;;5124236;27;20498;-54
2024/01/07 02:30:13;;;;;;;91.88;21.08;;;15.20;49.60;;;;;;5125119;27;20063;-54
2024/01/07 02:32:40;;;;;;;61.40;24.48;;;15.10;50.10;;;;;;5122999;27;20683;-52
2024/01/07 02:35:07;;;;;;;49.35;18.17;;;15.10;50.50;;;;;;5122937;27;20079;-51
2024/01/07 02:37:34;;;;;;;68.80;18.73;;;15.10;50.70;;;;;;5126611;27;20445;-51
2024/01/07 02:40:01;;;;;;;60.50;15.80;;;14.90;51.10;;;;;;5124237;28;20083;-52
2024/01/07 02:42:27;;;;;;;64.35;15.88;;;14.90;51.50;;;;;;5124531;28;20613;-52
2024/01/07 02:44:54;;;;;;;53.20;16.88;;;14.90;51.80;;;;;;5127687;27;20100;-52
2024/01/07 02:47:20;;;;;;;53.72;15.75;;;14.80;52.10;;;;;;5131156;27;20098;-54
2024/01/07 02:49:46;;;;;;;49.17;17.38;;;14.70;52.50;;;;;;5129691;27;20075;-56
2024/01/07 02:52:13;;;;;;;57.13;15.82;;;14.70;52.80;;;;;;5110673;27;20122;-56
2024/01/07 02:54:39;;;;;;;64.15;19.88;;;14.60;53.40;;;;;;5129332;27;20068;-54
2024/01/07 02:57:06;;;;;;;61.55;17.27;;;14.60;54.30;;;;;;5130705;27;20178;-55
2024/01/07 02:59:33;;;;;;;51.83;15.73;;;14.40;54.50;;;;;;5129471;27;20076;-53
2024/01/07 03:01:59;;;;;;;58.05;14.75;;;14.30;55.00;;;;;;5131325;27;20194;-55
2024/01/07 03:04:26;;;;;;;85.63;19.58;;;14.30;55.40;;;;;;5129372;27;20175;-53
2024/01/07 03:06:52;;;;;;;79.10;21.52;;;14.20;55.60;;;;;;5130796;27;20068;-51
2024/01/07 03:09:19;;;;;;;73.28;22.20;;;14.20;55.70;;;;;;5132101;27;20126;-59
2024/01/07 03:11:45;;;;;;;74.20;23.58;;;14.20;56.10;;;;;;5112296;27;20099;-53
2024/01/07 03:14:12;;;;;;;77.63;23.42;;;14.20;56.40;;;;;;5127844;27;20136;-59
2024/01/07 03:16:38;;;;;;;78.97;22.88;;;14.20;56.70;;;;;;5129091;27;20171;-55
2024/01/07 03:19:05;;;;;;;75.55;20.40;;;14.10;56.50;;;;;;5130333;27;20083;-59
2024/01/07 03:21:31;;;;;;;57.78;17.85;;;14.10;56.60;;;;;;5129633;27;20082;-54
2024/01/07 03:23:58;;;;;;;66.75;16.20;;;14.10;56.90;;;;;;5130686;27;20195;-55
2024/01/07 03:26:29;;;;;;;48.97;15.68;;;14.00;56.70;;;;;;5129101;27;20067;-51
2024/01/07 03:28:59;;;;;;;49.50;17.00;;;14.00;56.90;;;;;;5130860;27;20075;-55
2024/01/07 03:31:26;;;;;;;57.30;19.00;;;14.00;57.20;;;;;;5112715;27;20461;-52
2024/01/07 03:33:52;;;;;;;53.80;17.52;;;14.00;57.20;;;;;;5127990;27;20079;-54
2024/01/07 03:36:19;;;;;;;56.67;15.27;;;13.90;57.80;;;;;;5129607;27;20162;-56
2024/01/07 03:38:45;;;;;;;35.55;11.60;;;13.90;57.20;;;;;;5129819;27;20213;-51
2024/01/07 03:41:21;;;;;;;46.53;12.68;;;13.90;57.00;;;;;;5129329;27;20727;-55
2024/01/07 03:43:49;;;;;;;40.63;12.57;;;13.90;57.20;;;;;;5108666;27;20075;-57
2024/01/07 03:46:16;;;;;;;34.78;11.55;;;13.80;57.70;;;;;;5127558;27;20159;-56
2024/01/07 03:48:43;;;;;;;34.67;13.95;;;13.70;58.50;;;;;;5128364;27;20526;-51
2024/01/07 03:51:10;;;;;;;53.67;15.88;;;13.50;58.30;;;;;;5129730;27;20522;-58
2024/01/07 03:53:36;;;;;;;50.67;16.30;;;13.40;58.70;;;;;;5129009;27;20087;-54
2024/01/07 03:56:03;;;;;;;46.95;14.88;;;13.30;59.30;;;;;;5126990;27;20075;-56
2024/01/07 03:58:30;;;;;;;45.50;12.93;;;13.20;59.60;;;;;;5129919;27;20071;-56
2024/01/07 04:00:56;;;;;;;44.20;13.68;;;13.10;59.70;;;;;;5127696;27;20192;-54
2024/01/07 04:03:22;;;;;;;47.95;14.35;;;13.10;59.90;;;;;;5128179;27;20068;-57
2024/01/07 04:05:49;;;;;;;40.42;13.82;;;13.10;60.50;;;;;;5127653;27;20551;-56
2024/01/07 04:08:15;;;;;;;56.38;13.20;;;13.00;61.00;;;;;;5129440;27;20076;-55
2024/01/07 04:10:42;;;;;;;56.53;16.13;;;12.80;60.80;;;;;;5129161;27;20070;-53
2024/01/07 04:13:09;;;;;;;54.10;15.77;;;12.90;61.40;;;;;;5130086;27;20147;-56
2024/01/07 04:15:35;;;;;;;57.83;15.35;;;12.80;62.40;;;;;;5126821;27;20116;-59
2024/01/07 04:18:03;;;;;;;55.30;16.52;;;12.70;62.10;;;;;;5129613;27;20068;-57
2024/01/07 04:20:30;;;;;;;64.57;15.45;;;12.70;62.50;;;;;;5128385;27;20071;-60
2024/01/07 04:22:57;;;;;;;54.45;14.80;;;12.60;62.60;;;;;;5108210;27;20076;-57
2024/01/07 04:25:26;;;;;;;55.42;15.35;;;12.60;63.60;;;;;;5128904;27;20517;-56
2024/01/07 04:27:52;;;;;;;47.88;17.23;;;12.50;64.00;;;;;;5127800;27;20098;-56
2024/01/07 04:30:19;;;;;;;64.07;19.25;;;12.40;64.60;;;;;;5128827;27;20071;-55
2024/01/07 04:32:46;;;;;;;70.57;21.23;;;12.30;64.50;;;;;;5127617;27;20099;-58
2024/01/07 04:35:12;;;;;;;72.30;21.55;;;12.30;64.90;;;;;;5128999;27;20075;-57
2024/01/07 04:37:39;;;;;;;85.57;25.45;;;12.30;65.70;;;;;;5128270;27;20068;-51
2024/01/07 04:40:05;;;;;;;90.50;26.67;;;12.30;65.40;;;;;;5110055;27;20091;-55
2024/01/07 04:42:32;;;;;;;91.90;27.70;;;12.20;65.20;;;;;;5128350;27;20499;-50
2024/01/07 04:44:58;;;;;;;85.85;27.83;;;12.20;65.30;;;;;;5128271;27;20072;-51
2024/01/07 04:47:30;;;;;;;96.20;29.08;;;12.10;66.00;;;;;;5127555;27;20072;-51
2024/01/07 04:49:58;;;;;;;90.75;27.45;;;12.00;66.80;;;;;;5109478;27;20512;-59
2024/01/07 04:52:25;;;;;;;91.00;26.60;;;12.00;67.10;;;;;;5108543;27;20182;-55
2024/01/07 04:54:53;;;;;;;80.32;25.05;;;12.00;67.00;;;;;;5126760;27;20094;-53
2024/01/07 04:57:20;;;;;;;92.03;25.67;;;12.00;67.30;;;;;;5107496;27;20078;-58
2024/01/07 04:59:48;;;;;;;79.32;26.95;;;12.00;67.40;;;;;;5109426;27;20073;-52
2024/01/07 05:02:14;;;;;;;93.75;27.10;;;12.00;67.90;;;;;;5127700;27;20071;-52
2024/01/07 05:04:42;;;;;;;76.28;25.98;;;11.90;68.40;;;;;;5108191;27;20072;-55
2024/01/07 05:07:08;;;;;;;78.18;25.17;;;11.90;67.80;;;;;;5125406;27;20074;-51
2024/01/07 05:09:35;;;;;;;78.38;28.15;;;11.90;67.60;;;;;;5127952;27;20072;-54
2024/01/07 05:12:02;;;;;;;76.97;26.83;;;11.80;67.40;;;;;;5127572;27;20175;-50
2024/01/07 05:14:28;;;;;;;80.50;28.50;;;11.70;67.90;;;;;;5125507;27;20075;-51
2024/01/07 05:16:55;;;;;;;86.40;29.33;;;11.70;68.30;;;;;;5127052;27;20068;-54
2024/01/07 05:19:21;;;;;;;75.38;27.17;;;11.70;68.20;;;;;;5126266;27;20096;-51
2024/01/07 05:21:48;;;;;;;76.05;26.77;;;11.70;67.60;;;;;;5126806;27;20152;-49
2024/01/07 05:24:14;;;;;;;62.08;25.38;;;11.80;67.50;;;;;;5125714;27;20078;-52
2024/01/07 05:26:44;;;;;;;65.95;25.05;;;11.70;67.30;;;;;;5127256;27;20080;-56
2024/01/07 05:29:14;;;;;;;66.13;23.63;;;11.70;67.20;;;;;;5126782;27;20540;-58
2024/01/07 05:31:40;;;;;;;69.40;24.45;;;11.70;66.40;;;;;;5107018;27;20099;-59
2024/01/07 05:34:07;;;;;;;68.90;23.27;;;11.80;66.80;;;;;;5125652;27;20160;-59
2024/01/07 05:36:34;;;;;;;60.40;19.58;;;11.90;66.50;;;;;;5109140;27;20174;-59
2024/01/07 05:39:00;;;;;;;52.53;18.83;;;12.20;65.30;;;;;;5126398;27;20088;-58
2024/01/07 05:41:27;;;;;;;53.47;22.15;;;12.40;63.90;;;;;;5125754;27;20068;-58
2024/01/07 05:43:53;;;;;;;61.17;22.40;;;12.50;63.10;;;;;;5106820;27;20107;-61
2024/01/07 05:46:20;;;;;;;78.07;29.88;;;12.40;62.50;;;;;;5127137;27;20582;-59
2024/01/07 05:48:49;;;;;;;65.75;27.30;;;12.40;62.80;;;;;;5126851;27;20120;-59
2024/01/07 05:51:16;;;;;;;56.60;25.27;;;12.50;62.50;;;;;;5128260;27;20622;-60
2024/01/07 05:53:43;;;;;;;65.97;24.60;;;12.50;62.20;;;;;;5125234;27;20513;-59
2024/01/07 05:56:10;;;;;;;55.22;22.77;;;12.40;62.50;;;;;;5106833;27;20505;-58
2024/01/07 05:58:36;;;;;;;63.00;22.65;;;12.40;62.20;;;;;;5128075;27;20735;-58
2024/01/07 06:01:03;;;;;;;79.57;24.83;;;12.50;62.00;;;;;;5108418;27;20111;-59
2024/01/07 06:03:29;;;;;;;68.65;23.48;;;12.50;61.80;;;;;;5125577;27;21000;-59
2024/01/07 06:05:56;;;;;;;72.22;24.83;;;12.70;62.10;;;;;;5125449;27;20155;-59
2024/01/07 06:08:22;;;;;;;98.13;25.92;;;12.80;61.10;;;;;;5127030;27;20074;-59
2024/01/07 06:10:49;;;;;;;71.43;24.95;;;12.60;61.00;;;;;;5128143;27;20072;-58
2024/01/07 06:13:15;;;;;;;64.38;25.52;;;12.50;61.40;;;;;;5109273;27;20506;-59
2024/01/07 06:15:42;;;;;;;86.10;25.88;;;12.50;61.70;;;;;;5126924;27;20076;-58
2024/01/07 06:18:08;;;;;;;84.78;26.02;;;12.40;61.90;;;;;;5125340;27;20076;-57
2024/01/07 06:20:34;;;;;;;92.35;25.80;;;12.30;62.90;;;;;;5125303;27;20076;-57
2024/01/07 06:23:01;;;;;;;88.60;26.70;;;12.20;62.30;;;;;;5122690;27;20166;-59
2024/01/07 06:25:28;;;;;;;93.88;26.95;;;12.10;62.10;;;;;;5124822;27;20076;-57
2024/01/07 06:27:55;;;;;;;108.57;29.30;;;12.00;62.30;;;;;;5104264;27;20084;-60
2024/01/07 06:30:21;;;;;;;72.25;25.33;;;12.00;62.40;;;;;;5123542;27;20553;-58
2024/01/07 06:32:48;;;;;;;80.90;24.05;;;11.90;62.30;;;;;;5124076;27;20212;-60
2024/01/07 06:35:14;;;;;;;54.97;21.08;;;12.00;61.90;;;;;;5122628;27;20068;-58
2024/01/07 06:37:41;;;;;;;42.72;18.48;;;12.10;59.90;;;;;;5107367;27;20578;-58
2024/01/07 06:40:08;;;;;;;49.67;19.85;;;12.20;59.40;;;;;;5126100;27;20208;-59
2024/01/07 06:42:34;;;;;;;58.80;19.65;;;12.50;58.80;;;;;;5126482;28;20064;-61
2024/01/07 06:45:02;;;;;;;50.47;17.58;;;12.50;57.70;;;;;;5125019;28;20083;-60
2024/01/07 06:47:28;;;;;;;48.30;15.05;;;12.80;56.40;;;;;;5126057;28;20079;-60
2024/01/07 06:49:54;;;;;;;43.75;12.80;;;13.00;54.80;;;;;;5124044;28;20087;-60
2024/01/07 06:52:21;;;;;;;37.50;10.85;;;13.30;53.10;;;;;;5126486;28;20100;-60
2024/01/07 06:54:47;;;;;;;30.48;9.80;;;13.50;53.20;;;;;;5123808;28;20108;-62
2024/01/07 06:57:14;;;;;;;15.57;4.50;;;13.60;52.40;;;;;;5126331;28;20076;-59
2024/01/07 06:59:40;;;;;;;11.73;4.20;;;13.80;49.90;;;;;;5121942;28;20064;-61
2024/01/07 07:02:07;;;;;;;13.85;5.03;;;14.20;48.70;;;;;;5123782;28;20115;-61
2024/01/07 07:04:33;;;;;;;25.35;17.20;;;14.30;47.90;;;;;;5124967;28;20072;-60
2024/01/07 07:07:00;;;;;;;11.55;4.82;;;14.40;48.90;;;;;;5125430;28;20076;-60
2024/01/07 07:09:26;;;;;;;12.52;4.07;;;14.30;49.40;;;;;;5106098;28;20068;-62
2024/01/07 07:11:53;;;;;;;7.82;4.57;;;14.20;49.60;;;;;;5106571;28;20573;-61
2024/01/07 07:14:19;;;;;;;17.05;4.95;;;14.00;50.90;;;;;;5125300;28;21731;-60
2024/01/07 07:16:46;;;;;;;10.25;5.03;;;13.90;51.60;;;;;;5122553;28;20075;-61
2024/01/07 07:19:14;;;;;;;10.52;4.90;;;13.70;52.00;;;;;;5125381;28;20075;-60
2024/01/07 07:21:41;;;;;;;14.90;5.13;;;13.60;51.20;;;;;;5124047;28;20082;-62
2024/01/07 07:24:07;;;;;;;13.27;5.18;;;13.70;51.50;;;;;;5126718;28;20094;-63
2024/01/07 07:26:35;;;;;;;18.65;5.72;;;13.70;50.10;;;;;;5125866;28;20072;-63
2024/01/07 07:29:02;;;;;;;18.08;6.40;;;13.80;50.10;;;;;;5124045;27;20075;-63
2024/01/07 07:31:29;;;;;;;17.50;6.35;;;13.90;50.60;;;;;;5127260;27;20100;-61
2024/01/07 07:33:55;;;;;;;13.75;6.55;;;13.90;51.70;;;;;;5129215;27;20155;-60
2024/01/07 07:36:22;;;;;;;13.07;6.47;;;13.90;51.60;;;;;;5126049;27;20105;-62
2024/01/07 07:38:48;;;;;;;18.67;5.40;;;13.80;51.20;;;;;;5128739;27;20094;-63
2024/01/07 07:41:14;;;;;;;14.48;5.40;;;13.80;49.30;;;;;;5130257;27;20072;-63
2024/01/07 07:43:41;;;;;;;16.58;5.35;;;13.90;48.60;;;;;;5130437;27;20153;-59
2024/01/07 07:46:07;;;;;;;15.30;5.30;;;14.00;48.40;;;;;;5129965;27;20079;-60
2024/01/07 07:48:34;;;;;;;10.13;4.68;;;14.00;48.10;;;;;;5129145;27;20084;-59
2024/01/07 07:51:00;;;;;;;;;;;14.00;49.30;;;;;;5129228;27;20071;-60
2024/01/07 07:53:26;;;;;;;15.85;5.80;;;13.90;49.70;;;;;;5129908;27;20431;-59
2024/01/07 07:55:53;;;;;;;13.55;4.90;;;13.90;50.70;;;;;;5110146;27;20474;-61
2024/01/07 07:58:19;;;;;;;10.93;5.40;;;13.80;51.00;;;;;;5129862;27;20158;-60
2024/01/07 08:00:46;;;;;;;18.38;5.93;;;13.60;50.60;;;;;;5110379;27;20103;-61
2024/01/07 08:03:13;;;;;;;16.52;4.70;;;13.60;51.00;;;;;;5129567;27;20115;-60
2024/01/07 08:05:41;;;;;;;16.20;4.63;;;13.50;50.70;;;;;;5128079;27;20108;-61
2024/01/07 08:08:08;;;;;;;16.95;4.75;;;13.60;49.00;;;;;;5128110;27;20166;-61
2024/01/07 08:10:35;;;;;;;14.90;4.30;;;13.70;48.70;;;;;;5129007;27;20079;-59
2024/01/07 08:13:01;;;;;;;13.93;5.00;;;13.70;48.30;;;;;;5128525;27;20490;-61
2024/01/07 08:15:28;;;;;;;13.82;5.10;;;13.80;48.50;;;;;;5108898;27;20099;-61
2024/01/07 08:17:54;;;;;;;32.67;6.97;;;13.80;48.50;;;;;;5129201;27;20102;-62
2024/01/07 08:20:21;;;;;;;25.73;7.03;;;13.70;48.00;;;;;;5128865;27;20075;-60
2024/01/07 08:22:48;;;;;;;13.55;5.18;;;13.70;47.30;;;;;;5129851;27;20082;-60
2024/01/07 08:25:14;;;;;;;16.88;5.78;;;13.70;47.10;;;;;;5128092;27;20160;-61
2024/01/07 08:27:44;;;;;;;29.33;12.25;;;13.70;47.00;;;;;;5130556;27;20108;-62
2024/01/07 08:30:13;;;;;;;29.77;12.30;;;13.80;46.90;;;;;;5129039;27;20498;-62
2024/01/07 08:32:40;;;;;;;31.55;12.90;;;13.70;47.10;;;;;;5107109;27;20114;-61
2024/01/07 08:35:07;;;;;;;25.27;12.98;;;13.70;47.40;;;;;;5128173;27;20080;-61
2024/01/07 08:37:34;;;;;;;26.00;11.10;;;13.70;47.80;;;;;;5126918;27;20076;-62
2024/01/07 08:40:00;;;;;;;14.55;6.10;;;13.70;47.90;;;;;;5128760;27;20075;-61
2024/01/07 08:42:29;;;;;;;14.95;5.43;;;13.60;47.70;;;;;;5129618;27;20072;-59
2024/01/07 08:44:56;;;;;;;11.15;4.72;;;13.60;47.50;;;;;;5131397;27;20540;-60
2024/01/07 08:47:23;;;;;;;17.33;4.00;;;13.70;47.50;;;;;;5128801;27;20076;-62
2024/01/07 08:49:53;;;;;;;11.98;4.05;;;13.70;47.30;;;;;;5127362;27;20072;-60
2024/01/07 08:52:19;;;;;;;13.10;3.90;;;13.70;47.70;;;;;;5111010;27;20536;-60
2024/01/07 08:54:46;;;;;;;9.93;3.80;;;13.80;48.00;;;;;;5110386;27;20087;-60
2024/01/07 08:57:12;;;;;;;15.95;3.33;;;13.70;48.30;;;;;;5128856;27;20578;-60
2024/01/07 08:59:39;;;;;;;8.90;3.10;;;13.70;49.10;;;;;;5127801;27;20072;-61
2024/01/07 09:02:05;;;;;;;15.30;3.05;;;13.70;48.60;;;;;;5110766;27;20123;-63
2024/01/07 09:04:33;;;;;;;8.05;2.10;;;13.80;48.70;;;;;;5128692;27;20078;-61
2024/01/07 09:07:00;;;;;;;8.55;2.42;;;13.90;48.20;;;;;;5126989;27;20111;-61
2024/01/07 09:09:26;;;;;;;9.75;3.28;;;14.00;48.30;;;;;;5128868;27;20422;-60
2024/01/07 09:11:53;;;;;;;7.90;3.08;;;14.00;47.90;;;;;;5127131;27;20099;-61
2024/01/07 09:14:19;;;;;;;4.38;2.47;;;14.00;48.50;;;;;;5127002;27;20143;-60
2024/01/07 09:16:46;;;;;;;9.55;2.85;;;14.00;49.50;;;;;;5109520;27;20071;-61
2024/01/07 09:19:12;;;;;;;8.52;2.20;;;14.00;49.20;;;;;;5126364;27;20090;-60
2024/01/07 09:21:38;;;;;;;6.38;3.00;;;13.90;50.30;;;;;;5128397;27;20109;-60
2024/01/07 09:24:05;;;;;;;5.10;2.20;;;13.90;49.00;;;;;;5128515;27;20550;-61
2024/01/07 09:26:32;;;;;;;7.38;2.90;;;13.90;49.80;;;;;;5128295;27;20116;-62
2024/01/07 09:28:58;;;;;;;10.02;3.75;;;13.80;50.20;;;;;;5127953;27;20076;-60
2024/01/07 09:31:25;;;;;;;8.23;3.40;;;13.80;49.40;;;;;;5126880;27;20198;-60
2024/01/07 09:33:52;;;;;;;7.15;2.65;;;13.80;49.40;;;;;;5125852;27;20067;-61
2024/01/07 09:36:18;;;;;;;8.02;2.75;;;13.90;50.00;;;;;;5127927;27;20079;-60
2024/01/07 09:38:45;;;;;;;8.98;3.30;;;13.90;50.40;;;;;;5126220;27;20170;-60
2024/01/07 09:41:11;;;;;;;7.00;3.78;;;13.80;50.00;;;;;;5107775;27;20087;-60
2024/01/07 09:43:38;;;;;;;6.57;3.03;;;13.80;50.00;;;;;;5126069;27;21202;-62
2024/01/07 09:46:05;;;;;;;9.13;3.22;;;13.80;50.20;;;;;;5127120;27;20103;-61
2024/01/07 09:48:31;;;;;;;8.23;3.13;;;13.80;50.80;;;;;;5126925;27;20080;-61
2024/01/07 09:50:58;;;;;;;6.88;3.15;;;13.70;51.00;;;;;;5126311;27;20103;-61
2024/01/07 09:53:27;;;;;;;9.43;3.20;;;13.70;51.40;;;;;;5126043;27;20533;-62
2024/01/07 09:56:22;;;;;;;13.77;4.10;;;13.70;52.10;;;;;;5127484;27;20075;-62
2024/01/07 09:58:49;;;;;;;5.60;2.83;;;13.60;52.30;;;;;;5114965;27;20136;-60
2024/01/07 10:01:19;;;;;;;6.45;2.85;;;13.60;53.50;;;;;;5126513;27;20596;-61
2024/01/07 10:03:46;;;;;;;7.68;2.60;;;13.80;57.50;;;;;;5107824;27;20098;-64
2024/01/07 10:06:13;;;;;;;5.72;2.38;;;14.00;57.50;;;;;;5128182;27;20167;-61
2024/01/07 10:08:39;;;;;;;10.02;2.90;;;14.10;57.70;;;;;;5125961;27;20124;-61
2024/01/07 10:11:09;;;;;;;8.38;2.80;;;14.20;58.90;;;;;;5128455;27;20071;-61
2024/01/07 10:13:36;;;;;;;9.43;2.80;;;14.20;59.50;;;;;;5126136;27;20440;-60
2024/01/07 10:16:02;;;;;;;8.98;3.10;;;14.20;59.90;;;;;;5125176;27;20072;-59
2024/01/07 10:18:31;;;;;;;8.38;3.20;;;14.20;60.00;;;;;;5126657;27;20991;-62
2024/01/07 10:21:05;;;;;;;7.68;2.92;;;14.10;60.20;;;;;;5123379;27;20067;-60
2024/01/07 10:23:32;;;;;;;9.80;3.03;;;14.10;60.70;;;;;;5127832;27;20460;-60
2024/01/07 10:25:59;;;;;;;6.43;2.90;;;14.00;61.00;;;;;;5125923;27;20068;-61
2024/01/07 10:28:25;;;;;;;9.93;3.75;;;14.00;61.10;;;;;;5125600;27;20084;-60
2024/01/07 10:30:52;;;;;;;10.93;3.00;;;13.90;61.00;;;;;;5128472;27;20084;-60
2024/01/07 10:33:24;;;;;;;11.75;2.63;;;13.80;61.70;;;;;;5107241;27;20103;-60
2024/01/07 10:36:01;;;;;;;13.13;3.17;;;13.70;62.50;;;;;;5126513;27;20072;-62
2024/01/07 10:38:27;;;;;;;5.20;2.20;;;13.80;63.10;;;;;;5125453;27;20083;-61
2024/01/07 10:40:55;;;;;;;6.85;2.63;;;14.00;64.40;;;;;;5126958;27;20162;-60
2024/01/07 10:43:23;;;;;;;7.88;2.72;;;14.10;64.00;;;;;;5123639;28;20079;-59
2024/01/07 10:45:51;;;;;;;37.38;3.30;;;14.20;64.30;;;;;;5126333;28;20103;-58
2024/01/07 10:48:21;;;;;;;7.10;2.63;;;14.40;64.50;;;;;;5125502;28;20072;-59
2024/01/07 10:50:50;;;;;;;10.07;2.40;;;14.50;63.90;;;;;;5125347;28;20102;-60
2024/01/07 10:53:21;;;;;;;8.68;2.80;;;14.60;63.70;;;;;;5125190;28;20168;-60
2024/01/07 10:56:03;;;;;;;9.77;2.50;;;14.60;63.60;;;;;;5126301;28;20079;-62
2024/01/07 10:58:36;;;;;;;9.90;2.53;;;14.60;63.70;;;;;;5123586;28;20067;-63
2024/01/07 11:01:04;;;;;;;8.73;3.08;;;14.50;64.00;;;;;;5125117;28;20573;-61
2024/01/07 11:03:43;;;;;;;8.57;3.15;;;14.40;64.40;;;;;;5125224;28;20072;-61
2024/01/07 11:06:30;;;;;;;15.60;3.05;;;14.30;65.00;;;;;;5127935;27;20075;-61
2024/01/07 11:09:04;;;;;;;13.35;2.83;;;14.30;65.30;;;;;;5129804;27;20424;-63
2024/01/07 11:11:42;;;;;;;12.32;3.00;;;14.30;65.80;;;;;;5130102;27;20463;-63
2024/01/07 11:14:52;;;;;;;13.43;2.40;;;14.20;65.90;;;;;;5130331;27;20086;-62
2024/01/07 11:17:37;;;;;;;16.63;2.63;;;14.30;66.10;;;;;;5110578;27;20075;-62
2024/01/07 11:20:12;;;;;;;10.10;2.13;;;14.40;65.80;;;;;;5129093;27;20505;-64
2024/01/07 11:22:39;;;;;;;12.13;3.03;;;14.40;65.60;;;;;;5108697;27;20098;-63
2024/01/07 11:25:32;;;;;;;19.30;2.42;;;14.40;65.40;;;;;;5130107;27;20126;-63
2024/01/07 11:28:00;;;;;;;11.90;2.30;;;14.40;65.40;;;;;;5130388;27;20108;-60
2024/01/07 11:30:27;;;;;;;16.60;2.55;;;14.40;65.00;;;;;;5093430;27;20115;-61
2024/01/07 11:32:58;;;;;;;14.07;2.92;;;14.30;64.80;;;;;;5130732;27;20148;-62
2024/01/07 11:35:59;;;;;;;18.40;2.53;;;14.30;64.40;;;;;;5130167;27;20082;-59
2024/01/07 11:38:26;;;;;;;19.60;2.33;;;14.60;63.20;;;;;;5085046;27;20544;-59
2024/01/07 11:40:55;;;;;;;23.30;2.45;;;14.80;62.80;;;;;;5132540;27;20129;-62
2024/01/07 11:43:21;;;;;;;19.58;2.20;;;14.70;62.60;;;;;;5127198;27;20073;-59
2024/01/07 11:45:51;;;;;;;10.35;2.20;;;14.80;62.50;;;;;;5129625;27;20123;-60
2024/01/07 11:48:19;;;;;;;12.80;2.47;;;14.80;62.50;;;;;;5130078;27;20083;-60
2024/01/07 11:50:45;;;;;;;9.98;2.67;;;14.80;62.40;;;;;;5111438;27;20060;-62
2024/01/07 11:53:15;;;;;;;9.68;2.38;;;14.80;62.40;;;;;;5108970;27;20107;-65
2024/01/07 11:55:42;;;;;;;11.50;2.38;;;14.90;62.60;;;;;;5130326;27;20075;-61
2024/01/07 11:58:08;;;;;;;10.07;2.20;;;14.80;62.90;;;;;;5128388;27;20087;-60
2024/01/07 12:00:35;;;;;;;9.73;2.20;;;14.70;62.90;;;;;;5127528;27;20160;-60
2024/01/07 12:03:02;;;;;;;17.75;3.00;;;14.70;62.90;;;;;;5127444;27;20068;-60
2024/01/07 12:05:29;;;;;;;8.80;2.70;;;14.70;62.90;;;;;;5111885;27;20105;-60
2024/01/07 12:07:56;;;;;;;13.38;2.17;;;14.80;63.00;;;;;;5129641;27;20106;-62
2024/01/07 12:10:26;;;;;;;11.30;2.20;;;14.80;63.00;;;;;;5127392;27;20189;-59
2024/01/07 12:12:53;;;;;;;7.65;2.15;;;14.70;62.90;;;;;;5130224;27;20123;-59
2024/01/07 12:15:22;;;;;;;10.40;2.92;;;14.70;62.90;;;;;;5130149;27;20072;-61
2024/01/07 12:17:59;;;;;;;9.23;2.53;;;14.70;63.10;;;;;;5109260;27;20079;-61
2024/01/07 12:20:26;;;;;;;13.43;2.72;;;14.70;63.20;;;;;;5128876;27;20421;-60
2024/01/07 12:23:13;;;;;;;11.48;2.42;;;14.70;63.10;;;;;;5129491;27;20087;-60
2024/01/07 12:25:40;;;;;;;11.80;3.13;;;14.70;63.20;;;;;;5126735;27;20090;-61
2024/01/07 12:28:09;;;;;;;9.00;2.22;;;14.70;63.20;;;;;;5127951;27;20941;-61
2024/01/07 12:30:36;;;;;;;7.63;2.67;;;14.70;63.20;;;;;;5109304;27;20076;-61
2024/01/07 12:33:08;;;;;;;19.08;2.42;;;14.70;63.20;;;;;;5129272;27;20096;-59
2024/01/07 12:35:35;;;;;;;9.20;2.45;;;14.80;62.80;;;;;;5128401;27;20441;-60